Terminal Aerodrome Forecast
Issued by NWS Albany, NY

Home | Current Version | Previous Version | Text Only | Print | Product List | Glossary On
Versions: 1 2 3 4 5 6 7 8 9 10 11 12 13 14 15 16 17 18 19 20 21 22
000
FTUS41 KALY 071721
TAFPOU
TAF
KPOU 071721Z 0718/0818 18008KT P6SM VCSH SCT040 BKN060
      TEMPO 0718/0722 3SM SHRA BR BKN025 OVC040
     FM080000 19004KT 6SM BR SCT030 BKN120
     FM081000 24006KT P6SM VCSH BKN050
     FM081700 32008KT P6SM VCSH BKN035 OVC060=

USA.gov is the U.S. government's official web portal to all federal, state and local government web resources and services.